createdAt,value
2019-05-09T00:00:17.660Z,28.46
2019-05-09T00:01:19.390Z,28.51
2019-05-09T00:02:24.359Z,28.48
2019-05-09T00:03:25.872Z,28.42
2019-05-09T00:04:27.305Z,28.46
2019-05-09T00:05:28.828Z,28.46
2019-05-09T00:06:30.381Z,28.51
2019-05-09T00:07:33.699Z,28.46
2019-05-09T00:08:35.261Z,28.44
2019-05-09T00:09:36.753Z,28.52
2019-05-09T00:10:41.774Z,28.49
2019-05-09T00:11:43.831Z,28.57
2019-05-09T00:12:45.254Z,28.51
2019-05-09T00:13:46.718Z,28.46
2019-05-09T00:14:48.277Z,28.47
2019-05-09T00:15:49.717Z,28.49
2019-05-09T00:16:53.141Z,28.47
2019-05-09T00:17:54.593Z,28.53
2019-05-09T00:18:56.034Z,28.60
2019-05-09T00:19:59.429Z,28.54
2019-05-09T00:21:05.721Z,28.55
2019-05-09T00:22:07.292Z,28.58
2019-05-09T00:23:08.791Z,28.55
2019-05-09T00:24:10.354Z,28.64
2019-05-09T00:25:13.108Z,28.58
2019-05-09T00:26:14.947Z,28.55
2019-05-09T00:27:16.482Z,28.57
2019-05-09T00:28:18.018Z,28.63
2019-05-09T00:29:33.581Z,28.53
2019-05-09T00:30:54.155Z,28.53
2019-05-09T00:31:57.451Z,28.56
2019-05-09T00:32:59.007Z,28.51
2019-05-09T00:34:04.158Z,28.53
2019-05-09T00:35:07.915Z,28.62
2019-05-09T00:36:09.349Z,28.72
2019-05-09T00:37:10.779Z,28.64
2019-05-09T00:38:13.321Z,28.61
2019-05-09T00:39:14.982Z,28.63
2019-05-09T00:40:16.534Z,28.57
2019-05-09T00:41:18.092Z,28.60
2019-05-09T00:42:19.605Z,28.58
2019-05-09T00:43:21.158Z,28.60
2019-05-09T00:44:24.509Z,28.70
2019-05-09T00:45:44.454Z,28.68
2019-05-09T00:46:53.808Z,28.63
2019-05-09T00:47:56.403Z,28.54
2019-05-09T00:48:59.761Z,28.50
2019-05-09T00:50:01.409Z,28.51
2019-05-09T00:51:03.557Z,28.58
2019-05-09T00:52:05.102Z,28.54
2019-05-09T00:53:06.488Z,28.55
2019-05-09T00:54:07.916Z,28.54
2019-05-09T00:55:09.303Z,28.57
2019-05-09T00:56:13.294Z,28.52
2019-05-09T00:57:15.944Z,28.54
2019-05-09T00:58:17.389Z,28.51
2019-05-09T00:59:18.849Z,28.56
2019-05-09T01:00:20.795Z,28.56
2019-05-09T01:01:24.022Z,28.66
2019-05-09T01:02:25.706Z,28.68
2019-05-09T01:03:27.096Z,28.67
2019-05-09T01:04:28.532Z,28.58
2019-05-09T01:05:30.016Z,28.69
2019-05-09T01:06:34.005Z,28.69
2019-05-09T01:07:35.771Z,28.57
2019-05-09T01:08:37.324Z,28.59
2019-05-09T01:09:38.776Z,28.65
2019-05-09T01:10:40.325Z,28.65
2019-05-09T01:11:43.815Z,28.57
2019-05-09T01:12:45.142Z,28.57
2019-05-09T01:13:46.526Z,28.64
2019-05-09T01:14:47.952Z,28.67
2019-05-09T01:15:49.337Z,28.72
2019-05-09T01:16:50.767Z,28.59
2019-05-09T01:17:53.606Z,28.70
2019-05-09T01:18:55.213Z,28.76
2019-05-09T01:19:57.224Z,28.71
2019-05-09T01:20:58.734Z,28.69
2019-05-09T01:22:03.544Z,28.59
2019-05-09T01:23:04.502Z,28.58
2019-05-09T01:24:05.879Z,28.62
2019-05-09T01:25:07.562Z,28.65
2019-05-09T01:26:09.049Z,28.56
2019-05-09T01:27:10.478Z,28.60
2019-05-09T01:28:13.950Z,28.61
2019-05-09T01:29:15.297Z,28.59
2019-05-09T01:30:17.302Z,28.62
2019-05-09T01:31:18.713Z,28.59
2019-05-09T01:32:23.686Z,28.56
2019-05-09T01:33:28.193Z,28.70
2019-05-09T01:34:32.975Z,28.54
2019-05-09T01:35:34.300Z,28.48
2019-05-09T01:36:54.120Z,28.50
2019-05-09T01:37:55.580Z,28.62
2019-05-09T01:38:56.994Z,28.55
2019-05-09T01:39:58.505Z,28.67
2019-05-09T01:41:00.019Z,28.70
2019-05-09T01:42:03.431Z,28.73
2019-05-09T01:43:05.139Z,28.72
2019-05-09T01:44:07.553Z,28.69
2019-05-09T01:45:09.099Z,28.62
2019-05-09T01:46:10.544Z,28.51
2019-05-09T01:47:13.714Z,28.53
2019-05-09T01:48:15.425Z,28.60
2019-05-09T01:49:16.856Z,28.65
2019-05-09T01:50:18.242Z,28.64
2019-05-09T01:51:23.153Z,28.48
2019-05-09T01:52:24.178Z,28.58
2019-05-09T01:53:27.506Z,28.59
2019-05-09T01:54:29.144Z,28.56
2019-05-09T01:55:34.005Z,28.61
2019-05-09T01:56:35.454Z,28.49
2019-05-09T01:57:36.902Z,28.45
2019-05-09T01:58:38.357Z,28.42
2019-05-09T01:59:39.788Z,28.47
2019-05-09T02:00:43.597Z,28.49
2019-05-09T02:01:45.099Z,28.49
2019-05-09T02:02:46.585Z,28.42
2019-05-09T02:03:48.013Z,28.43
2019-05-09T02:04:49.964Z,28.45
2019-05-09T02:05:53.117Z,28.44
2019-05-09T02:06:54.852Z,28.39
2019-05-09T02:07:56.298Z,28.44
2019-05-09T02:08:57.755Z,28.41
2019-05-09T02:10:00.173Z,28.43
2019-05-09T02:11:03.854Z,28.48
2019-05-09T02:12:04.965Z,28.44
2019-05-09T02:13:06.538Z,28.47
2019-05-09T02:14:13.522Z,28.47
2019-05-09T02:15:34.073Z,28.43
2019-05-09T02:16:37.333Z,28.43
2019-05-09T02:17:54.898Z,28.34
2019-05-09T02:18:49.129Z,28.40
2019-05-09T02:19:50.566Z,28.43
2019-05-09T02:20:53.295Z,28.48
2019-05-09T02:21:54.793Z,28.49
2019-05-09T02:22:56.236Z,28.50
2019-05-09T02:23:57.621Z,28.53
2019-05-09T02:24:59.052Z,28.62
2019-05-09T02:26:00.484Z,28.52
2019-05-09T02:27:03.916Z,28.58
2019-05-09T02:28:05.314Z,28.50
2019-05-09T02:29:06.930Z,28.48
2019-05-09T02:30:09.845Z,28.48
2019-05-09T02:31:16.334Z,28.45
2019-05-09T02:32:17.852Z,28.47
2019-05-09T02:33:19.283Z,28.50
2019-05-09T02:34:20.672Z,28.43
2019-05-09T02:35:22.096Z,28.47
2019-05-09T02:36:23.520Z,28.50
2019-05-09T02:37:24.918Z,28.47
2019-05-09T02:38:28.673Z,28.54
2019-05-09T02:39:29.736Z,28.42
2019-05-09T02:40:31.269Z,28.46
2019-05-09T02:41:32.714Z,28.38
2019-05-09T02:42:34.094Z,28.35
2019-05-09T02:43:38.675Z,28.43
2019-05-09T02:44:39.597Z,28.39
2019-05-09T02:45:55.160Z,28.31
2019-05-09T02:46:58.999Z,28.38
2019-05-09T02:48:00.466Z,28.25
2019-05-09T02:49:01.968Z,28.30
2019-05-09T02:50:09.096Z,28.33
2019-05-09T02:51:09.519Z,28.37
2019-05-09T02:52:11.200Z,28.27
2019-05-09T02:53:12.580Z,28.38
2019-05-09T02:54:14.011Z,28.35
2019-05-09T02:55:18.462Z,28.37
2019-05-09T02:56:19.836Z,28.41
2019-05-09T02:57:21.377Z,28.37
2019-05-09T02:58:24.686Z,28.30
2019-05-09T02:59:34.644Z,28.25
2019-05-09T03:00:40.745Z,28.29
2019-05-09T03:01:52.974Z,28.22
2019-05-09T03:03:09.166Z,28.29
2019-05-09T03:04:11.058Z,28.18
2019-05-09T03:05:12.792Z,28.24
2019-05-09T03:06:14.277Z,28.41
2019-05-09T03:07:18.701Z,28.45
2019-05-09T03:08:19.460Z,28.42
2019-05-09T03:09:21.233Z,28.41
2019-05-09T03:10:22.736Z,28.47
2019-05-09T03:11:24.132Z,28.42
2019-05-09T03:12:34.411Z,28.44
2019-05-09T03:13:29.273Z,28.43
2019-05-09T03:14:30.990Z,28.33
2019-05-09T03:15:33.344Z,28.43
2019-05-09T03:16:34.805Z,28.42
2019-05-09T03:17:38.603Z,28.42
2019-05-09T03:18:39.593Z,28.45
2019-05-09T03:19:41.080Z,28.48
2019-05-09T03:20:49.217Z,28.56
2019-05-09T03:21:52.383Z,28.55
2019-05-09T03:22:58.085Z,28.39
2019-05-09T03:23:59.427Z,28.47
2019-05-09T03:25:01.185Z,28.48
2019-05-09T03:26:03.234Z,28.50
2019-05-09T03:27:08.543Z,28.49
2019-05-09T03:28:18.582Z,28.41
2019-05-09T03:29:39.706Z,28.35
2019-05-09T03:30:43.207Z,28.33
2019-05-09T03:31:44.936Z,28.32
2019-05-09T03:32:48.992Z,28.43
2019-05-09T03:33:50.353Z,28.42
2019-05-09T03:34:51.997Z,28.45
2019-05-09T03:35:53.562Z,28.44
2019-05-09T03:36:58.075Z,28.46
2019-05-09T03:38:07.853Z,28.48
2019-05-09T03:39:08.881Z,28.35
2019-05-09T03:40:10.521Z,28.38
2019-05-09T03:41:12.903Z,28.32
2019-05-09T03:42:17.901Z,28.38
2019-05-09T03:43:18.442Z,28.44
2019-05-09T03:44:20.048Z,28.41
2019-05-09T03:45:22.668Z,28.37
2019-05-09T03:46:41.029Z,28.38
2019-05-09T03:47:44.307Z,28.35
2019-05-09T03:48:58.255Z,28.27
2019-05-09T03:50:10.266Z,28.23
2019-05-09T03:51:11.773Z,28.28
2019-05-09T03:52:13.181Z,28.28
2019-05-09T03:53:14.699Z,28.35
2019-05-09T03:54:18.200Z,28.31
2019-05-09T03:55:21.349Z,28.40
2019-05-09T03:56:30.441Z,28.31
2019-05-09T03:57:33.734Z,28.32
2019-05-09T03:58:35.159Z,28.37
2019-05-09T03:59:38.079Z,28.34
2019-05-09T04:00:39.772Z,28.25
2019-05-09T04:01:41.213Z,28.28
2019-05-09T04:02:42.620Z,28.22
2019-05-09T04:03:44.020Z,28.33
2019-05-09T04:04:47.426Z,28.30
2019-05-09T04:05:59.125Z,28.32
2019-05-09T04:06:52.287Z,28.32
2019-05-09T04:07:55.599Z,28.28
2019-05-09T04:08:58.536Z,28.45
2019-05-09T04:10:00.128Z,28.53
2019-05-09T04:11:01.556Z,28.48
2019-05-09T04:12:02.973Z,28.43
2019-05-09T04:13:04.381Z,28.43
2019-05-09T04:14:08.307Z,28.42
2019-05-09T04:15:09.798Z,28.36
2019-05-09T04:16:11.346Z,28.41
2019-05-09T04:17:12.755Z,28.46
2019-05-09T04:18:14.204Z,28.54
2019-05-09T04:19:17.517Z,28.44
2019-05-09T04:20:19.028Z,28.50
2019-05-09T04:21:21.576Z,28.43
2019-05-09T04:22:23.149Z,28.41
2019-05-09T04:23:24.549Z,28.47
2019-05-09T04:24:27.944Z,28.46
2019-05-09T04:25:31.465Z,28.54
2019-05-09T04:26:34.774Z,28.56
2019-05-09T04:27:37.432Z,28.48
2019-05-09T04:28:39.981Z,28.52
2019-05-09T04:29:41.499Z,28.52
2019-05-09T04:30:43.084Z,28.63
2019-05-09T04:31:44.515Z,28.66
2019-05-09T04:32:47.662Z,28.72
2019-05-09T04:33:49.297Z,28.73
2019-05-09T04:34:50.747Z,28.68
2019-05-09T04:35:52.316Z,28.62
2019-05-09T04:36:53.761Z,28.64
2019-05-09T04:37:55.188Z,28.64
2019-05-09T04:38:57.777Z,28.70
2019-05-09T04:40:03.164Z,28.71
2019-05-09T04:41:02.608Z,28.72
2019-05-09T04:42:05.699Z,28.75
2019-05-09T04:43:14.265Z,28.78
2019-05-09T04:44:20.803Z,28.73
2019-05-09T04:45:28.338Z,28.73
2019-05-09T04:46:29.969Z,28.67
2019-05-09T04:47:33.853Z,28.69
2019-05-09T04:48:37.392Z,28.67
2019-05-09T04:49:41.017Z,28.77
2019-05-09T04:50:41.796Z,28.77
2019-05-09T04:51:43.181Z,28.73
2019-05-09T04:52:44.608Z,28.74
2019-05-09T04:53:47.980Z,28.74
2019-05-09T04:54:49.480Z,28.74
2019-05-09T04:55:50.940Z,28.77
2019-05-09T04:56:53.951Z,28.72
2019-05-09T04:57:57.188Z,28.75
2019-05-09T04:58:58.777Z,28.85
2019-05-09T05:00:00.157Z,28.85
2019-05-09T05:01:21.774Z,28.85
2019-05-09T05:02:34.006Z,28.82
2019-05-09T05:03:37.579Z,28.67
2019-05-09T05:04:39.036Z,28.66
2019-05-09T05:05:40.584Z,28.70
2019-05-09T05:06:42.034Z,28.70
2019-05-09T05:07:43.477Z,28.70
2019-05-09T05:08:44.936Z,28.70
2019-05-09T05:09:48.334Z,28.69
2019-05-09T05:10:49.656Z,28.60
2019-05-09T05:11:51.081Z,28.50
2019-05-09T05:12:52.471Z,28.42
2019-05-09T05:13:53.903Z,28.38
2019-05-09T05:14:57.799Z,28.33
2019-05-09T05:15:59.067Z,28.23
2019-05-09T05:17:07.682Z,28.13
2019-05-09T05:18:04.030Z,28.05
2019-05-09T05:19:07.404Z,27.96
2019-05-09T05:20:10.871Z,27.91
2019-05-09T05:21:12.273Z,27.84
2019-05-09T05:22:17.975Z,27.70
2019-05-09T05:23:37.954Z,27.62
2019-05-09T05:24:48.734Z,27.57
2019-05-09T05:25:50.441Z,27.42
2019-05-09T05:26:51.825Z,27.31
2019-05-09T05:27:53.246Z,27.25
2019-05-09T05:28:54.631Z,27.14
2019-05-09T05:29:58.107Z,27.08
2019-05-09T05:30:59.472Z,26.99
2019-05-09T05:32:02.821Z,26.95
2019-05-09T05:33:08.101Z,26.89
2019-05-09T05:34:11.431Z,26.82
2019-05-09T05:35:18.785Z,26.76
2019-05-09T05:36:21.647Z,26.67
2019-05-09T05:37:23.020Z,26.63
2019-05-09T05:38:24.558Z,26.57
2019-05-09T05:39:28.147Z,26.53
2019-05-09T05:40:32.988Z,26.51
2019-05-09T05:41:32.723Z,26.46
2019-05-09T05:42:34.181Z,26.43
2019-05-09T05:43:43.343Z,26.39
2019-05-09T05:44:38.982Z,26.38
2019-05-09T05:45:42.334Z,26.36
2019-05-09T05:46:54.581Z,26.31
2019-05-09T05:47:57.992Z,26.26
2019-05-09T05:48:59.437Z,26.20
2019-05-09T05:50:00.875Z,26.18
2019-05-09T05:51:02.325Z,26.17
2019-05-09T05:52:03.783Z,26.15
2019-05-09T05:53:05.172Z,26.17
2019-05-09T05:54:07.772Z,26.17
2019-05-09T05:55:09.389Z,26.15
2019-05-09T05:56:10.834Z,26.16
2019-05-09T05:57:12.247Z,26.14
2019-05-09T05:58:13.799Z,26.15
2019-05-09T05:59:17.865Z,26.16
2019-05-09T06:00:21.589Z,26.13
2019-05-09T06:01:23.029Z,26.11
2019-05-09T06:02:24.452Z,26.12
2019-05-09T06:03:28.186Z,26.11
2019-05-09T06:04:29.265Z,26.13
2019-05-09T06:05:30.749Z,26.14
2019-05-09T06:06:33.126Z,26.12
2019-05-09T06:07:34.622Z,26.14
2019-05-09T06:08:38.056Z,26.15
2019-05-09T06:09:39.527Z,26.14
2019-05-09T06:10:40.973Z,26.15
2019-05-09T06:11:42.421Z,26.15
2019-05-09T06:12:43.845Z,26.12
2019-05-09T06:13:56.226Z,26.11
2019-05-09T06:14:49.657Z,26.12
2019-05-09T06:15:51.036Z,26.13
2019-05-09T06:16:52.456Z,26.12
2019-05-09T06:17:53.860Z,26.10
2019-05-09T06:18:55.373Z,26.12
2019-05-09T06:19:58.943Z,26.11
2019-05-09T06:21:00.176Z,26.08
2019-05-09T06:22:01.621Z,26.10
2019-05-09T06:23:03.052Z,26.08
2019-05-09T06:24:04.448Z,26.04
2019-05-09T06:25:09.572Z,26.11
2019-05-09T06:26:10.410Z,26.13
2019-05-09T06:27:11.960Z,26.10
2019-05-09T06:28:13.465Z,26.09
2019-05-09T06:29:17.522Z,26.11
2019-05-09T06:30:21.873Z,26.12
2019-05-09T06:31:23.254Z,26.14
2019-05-09T06:32:24.680Z,26.07
2019-05-09T06:33:28.424Z,26.12
2019-05-09T06:34:29.461Z,26.11
2019-05-09T06:35:30.917Z,26.13
2019-05-09T06:36:32.479Z,26.09
2019-05-09T06:37:34.022Z,26.09
2019-05-09T06:38:37.602Z,26.11
2019-05-09T06:39:38.777Z,26.15
2019-05-09T06:40:40.210Z,26.11
2019-05-09T06:41:41.583Z,26.11
2019-05-09T06:42:43.009Z,26.14
2019-05-09T06:43:49.516Z,26.14
2019-05-09T06:44:54.154Z,26.16
2019-05-09T06:46:09.249Z,26.16
2019-05-09T06:47:24.721Z,26.17
2019-05-09T06:48:28.308Z,26.14
2019-05-09T06:49:32.121Z,26.11
2019-05-09T06:50:33.568Z,26.12
2019-05-09T06:51:35.089Z,26.19
2019-05-09T06:52:37.540Z,26.22
2019-05-09T06:53:39.085Z,26.22
2019-05-09T06:54:41.781Z,26.22
2019-05-09T06:55:43.447Z,26.21
2019-05-09T06:56:44.896Z,26.22
2019-05-09T06:57:48.703Z,26.23
2019-05-09T06:58:49.790Z,26.23
2019-05-09T06:59:51.336Z,26.22
2019-05-09T07:00:54.620Z,26.26
2019-05-09T07:02:08.193Z,26.28
2019-05-09T07:03:18.506Z,26.28
2019-05-09T07:04:21.918Z,26.26
2019-05-09T07:05:41.829Z,26.27
2019-05-09T07:06:45.193Z,26.30
2019-05-09T07:08:08.099Z,26.27
2019-05-09T07:09:28.284Z,26.29
2019-05-09T07:10:29.824Z,26.29
2019-05-09T07:11:31.252Z,26.28
2019-05-09T07:12:32.638Z,26.29
2019-05-09T07:13:34.069Z,26.34
2019-05-09T07:14:39.089Z,26.36
2019-05-09T07:15:39.317Z,26.37
2019-05-09T07:16:40.728Z,26.35
2019-05-09T07:17:42.172Z,26.38
2019-05-09T07:18:43.577Z,26.40
2019-05-09T07:19:45.067Z,26.40
2019-05-09T07:20:48.297Z,26.38
2019-05-09T07:22:03.682Z,26.33
2019-05-09T07:23:05.057Z,26.31
2019-05-09T07:24:07.917Z,26.23
2019-05-09T07:25:11.601Z,26.24
2019-05-09T07:26:32.897Z,26.28
2019-05-09T07:27:38.842Z,26.29
2019-05-09T07:28:40.125Z,26.28
2019-05-09T07:29:41.595Z,26.31
2019-05-09T07:30:44.884Z,26.35
2019-05-09T07:31:50.856Z,26.33
2019-05-09T07:32:57.961Z,26.31
2019-05-09T07:34:01.536Z,26.31
2019-05-09T07:35:05.691Z,26.34
2019-05-09T07:36:08.557Z,26.34
2019-05-09T07:37:10.177Z,26.37
2019-05-09T07:38:11.600Z,26.38
2019-05-09T07:39:12.989Z,26.39
2019-05-09T07:40:14.420Z,26.40
2019-05-09T07:41:17.807Z,26.38
2019-05-09T07:42:19.139Z,26.37
2019-05-09T07:43:20.550Z,26.35
2019-05-09T07:44:22.000Z,26.38
2019-05-09T07:45:23.545Z,26.37
2019-05-09T07:46:29.134Z,26.38
2019-05-09T07:47:30.712Z,26.39
2019-05-09T07:48:32.379Z,26.36
2019-05-09T07:49:33.780Z,26.38
2019-05-09T07:50:35.267Z,26.38
2019-05-09T07:51:37.381Z,26.40
2019-05-09T07:52:39.081Z,26.41
2019-05-09T07:53:40.634Z,26.42
2019-05-09T07:54:42.036Z,26.45
2019-05-09T07:55:43.552Z,26.48
2019-05-09T07:56:44.962Z,26.50
2019-05-09T07:57:54.591Z,26.50
2019-05-09T07:58:49.834Z,26.54
2019-05-09T07:59:51.316Z,26.54
2019-05-09T08:00:52.746Z,26.56
2019-05-09T08:01:54.138Z,26.62
2019-05-09T08:02:57.980Z,26.60
2019-05-09T08:03:59.218Z,26.58
2019-05-09T08:05:00.640Z,26.60
2019-05-09T08:06:02.240Z,26.66
2019-05-09T08:07:03.673Z,26.79
2019-05-09T08:08:08.671Z,26.93
2019-05-09T08:09:10.103Z,27.11
2019-05-09T08:10:11.680Z,27.19
2019-05-09T08:11:14.200Z,27.25
2019-05-09T08:12:17.875Z,27.25
2019-05-09T08:13:21.570Z,27.26
2019-05-09T08:14:22.244Z,27.35
2019-05-09T08:15:23.648Z,27.38
2019-05-09T08:16:25.065Z,27.39
2019-05-09T08:17:28.661Z,27.43
2019-05-09T08:18:29.865Z,27.44
2019-05-09T08:19:31.336Z,27.47
2019-05-09T08:20:32.724Z,27.50
2019-05-09T08:21:34.209Z,27.47
2019-05-09T08:22:40.898Z,27.43
2019-05-09T08:23:38.974Z,27.46
2019-05-09T08:24:40.382Z,27.48
2019-05-09T08:25:41.884Z,27.47
2019-05-09T08:26:43.359Z,27.55
2019-05-09T08:27:44.763Z,27.48
2019-05-09T08:28:48.048Z,27.52
2019-05-09T08:29:49.521Z,27.42
2019-05-09T08:30:50.900Z,27.42
2019-05-09T08:31:52.340Z,27.40
2019-05-09T08:32:53.721Z,27.35
2019-05-09T08:33:55.364Z,27.31
2019-05-09T08:34:57.646Z,27.25
2019-05-09T08:35:59.293Z,27.22
2019-05-09T08:37:00.802Z,27.19
2019-05-09T08:38:02.212Z,27.21
2019-05-09T08:39:07.903Z,27.12
2019-05-09T08:40:09.038Z,27.10
2019-05-09T08:41:13.969Z,27.03
2019-05-09T08:42:18.010Z,27.01
2019-05-09T08:43:19.876Z,26.98
2019-05-09T08:44:21.430Z,26.97
2019-05-09T08:45:27.841Z,26.96
2019-05-09T08:46:28.453Z,26.97
2019-05-09T08:47:29.601Z,26.94
2019-05-09T08:48:31.042Z,26.95
2019-05-09T08:49:37.588Z,26.94
2019-05-09T08:50:53.132Z,26.91
2019-05-09T08:52:15.594Z,26.92
2019-05-09T08:53:12.052Z,26.86
2019-05-09T08:54:32.012Z,26.85
2019-05-09T08:55:33.520Z,26.87
2019-05-09T08:56:34.951Z,26.85
2019-05-09T08:57:37.519Z,26.90
2019-05-09T08:58:39.186Z,26.92
2019-05-09T08:59:40.561Z,26.94
2019-05-09T09:00:42.092Z,26.98
2019-05-09T09:02:09.246Z,27.00
2019-05-09T09:02:48.237Z,26.97
2019-05-09T09:03:50.008Z,26.93
2019-05-09T09:04:51.456Z,26.95
2019-05-09T09:05:52.905Z,26.95
2019-05-09T09:06:54.361Z,26.97
2019-05-09T09:07:57.757Z,26.93
2019-05-09T09:08:59.098Z,26.96
2019-05-09T09:10:00.481Z,26.92
2019-05-09T09:11:01.908Z,26.94
2019-05-09T09:12:03.617Z,26.94
2019-05-09T09:13:05.270Z,26.93
2019-05-09T09:14:07.878Z,26.94
2019-05-09T09:15:09.751Z,26.91
2019-05-09T09:16:18.560Z,26.91
2019-05-09T09:17:14.624Z,26.88
2019-05-09T09:18:17.992Z,26.83
2019-05-09T09:19:19.360Z,26.87
2019-05-09T09:20:20.847Z,26.87
2019-05-09T09:21:22.276Z,26.87
2019-05-09T09:22:23.860Z,26.81
2019-05-09T09:23:42.318Z,26.79
2019-05-09T09:24:28.668Z,26.82
2019-05-09T09:25:30.115Z,26.80
2019-05-09T09:26:31.554Z,26.74
2019-05-09T09:27:33.016Z,26.76
2019-05-09T09:28:34.474Z,26.75
2019-05-09T09:29:37.962Z,26.75
2019-05-09T09:30:39.231Z,26.69
2019-05-09T09:31:40.725Z,26.64
2019-05-09T09:32:42.231Z,26.64
2019-05-09T09:33:43.677Z,26.62
2019-05-09T09:34:45.129Z,26.59
2019-05-09T09:35:48.964Z,26.58
2019-05-09T09:36:49.939Z,26.55
2019-05-09T09:37:52.363Z,26.48
2019-05-09T09:38:53.869Z,26.51
2019-05-09T09:39:58.063Z,26.47
2019-05-09T09:40:58.553Z,26.45
2019-05-09T09:41:59.949Z,26.43
2019-05-09T09:43:02.617Z,26.43
2019-05-09T09:44:04.124Z,26.36
2019-05-09T09:45:07.820Z,26.38
2019-05-09T09:46:14.514Z,26.42
2019-05-09T09:47:12.556Z,26.41
2019-05-09T09:48:14.052Z,26.44
2019-05-09T09:49:17.982Z,26.43
2019-05-09T09:50:18.876Z,26.46
2019-05-09T09:51:20.286Z,26.49
2019-05-09T09:52:21.696Z,26.48
2019-05-09T09:53:23.214Z,26.49
2019-05-09T09:54:24.689Z,26.49
2019-05-09T09:55:27.832Z,26.50
2019-05-09T09:56:29.370Z,26.48
2019-05-09T09:57:30.757Z,26.51
2019-05-09T09:58:32.239Z,26.54
2019-05-09T09:59:41.475Z,26.54
2019-05-09T10:00:58.778Z,26.52
2019-05-09T10:02:02.227Z,26.47
2019-05-09T10:03:03.701Z,26.45
2019-05-09T10:04:18.641Z,26.43
2019-05-09T10:05:10.281Z,26.44
2019-05-09T10:06:11.683Z,26.47
2019-05-09T10:07:13.056Z,26.47
2019-05-09T10:08:14.559Z,26.47
2019-05-09T10:09:17.468Z,26.48
2019-05-09T10:10:31.887Z,26.49
2019-05-09T10:11:33.301Z,26.61
2019-05-09T10:12:34.800Z,26.71
2019-05-09T10:13:37.478Z,26.88
2019-05-09T10:14:57.744Z,26.88
2019-05-09T10:16:04.240Z,27.05
2019-05-09T10:17:24.328Z,27.02
2019-05-09T10:18:30.446Z,26.91
2019-05-09T10:19:50.169Z,26.60
2019-05-09T10:21:10.168Z,26.39
2019-05-09T10:22:13.483Z,26.06
2019-05-09T10:23:18.839Z,25.90
2019-05-09T10:24:18.171Z,25.87
2019-05-09T10:25:19.564Z,25.77
2019-05-09T10:26:20.972Z,25.68
2019-05-09T10:27:22.393Z,25.59
2019-05-09T10:28:23.803Z,25.47
2019-05-09T10:29:25.324Z,25.35
2019-05-09T10:30:31.253Z,25.30
2019-05-09T10:31:32.628Z,25.26
2019-05-09T10:32:34.020Z,25.20
2019-05-09T10:33:37.373Z,25.21
2019-05-09T10:34:39.000Z,25.25
2019-05-09T10:35:40.572Z,25.21
2019-05-09T10:36:41.986Z,25.19
2019-05-09T10:37:43.395Z,25.18
2019-05-09T10:38:44.801Z,25.21
2019-05-09T10:39:48.769Z,25.21
2019-05-09T10:40:53.155Z,25.18
2019-05-09T10:41:53.222Z,25.21
2019-05-09T10:43:11.325Z,25.26
2019-05-09T10:44:14.607Z,25.25
2019-05-09T10:45:23.637Z,25.24
2019-05-09T10:46:52.514Z,25.28
2019-05-09T10:47:48.287Z,25.29
2019-05-09T10:48:51.772Z,25.29
2019-05-09T10:49:53.172Z,25.37
2019-05-09T10:50:55.057Z,25.42
2019-05-09T10:51:58.194Z,25.45
2019-05-09T10:52:59.667Z,25.46
2019-05-09T10:54:01.166Z,25.51
2019-05-09T10:55:03.438Z,25.50
2019-05-09T10:56:04.833Z,25.51
2019-05-09T10:57:06.220Z,25.51
2019-05-09T10:58:08.258Z,25.53
2019-05-09T10:59:09.837Z,25.52
2019-05-09T11:00:11.546Z,25.56
2019-05-09T11:01:13.056Z,25.55
2019-05-09T11:02:14.590Z,25.52
2019-05-09T11:03:18.066Z,25.54
2019-05-09T11:04:19.270Z,25.52
2019-05-09T11:05:20.745Z,25.49
2019-05-09T11:06:22.245Z,25.52
2019-05-09T11:07:23.744Z,25.50
2019-05-09T11:08:25.266Z,25.52
2019-05-09T11:09:29.186Z,25.54
2019-05-09T11:10:32.665Z,25.54
2019-05-09T11:11:33.334Z,25.57
2019-05-09T11:12:34.712Z,25.56
2019-05-09T11:13:38.781Z,25.56
2019-05-09T11:14:39.391Z,25.58
2019-05-09T11:15:40.879Z,25.60
2019-05-09T11:16:49.010Z,25.63
2019-05-09T11:17:47.443Z,25.62
2019-05-09T11:18:49.073Z,25.59
2019-05-09T11:19:50.583Z,25.59
2019-05-09T11:20:52.006Z,25.58
2019-05-09T11:21:53.420Z,25.62
2019-05-09T11:22:54.850Z,25.59
2019-05-09T11:23:58.341Z,25.61
2019-05-09T11:24:59.761Z,25.63
2019-05-09T11:26:01.149Z,25.64
2019-05-09T11:27:02.640Z,25.68
2019-05-09T11:28:10.915Z,25.69
2019-05-09T11:29:08.341Z,25.71
2019-05-09T11:30:10.236Z,25.68
2019-05-09T11:31:11.997Z,25.69
2019-05-09T11:32:13.615Z,25.70
2019-05-09T11:33:15.113Z,25.68
2019-05-09T11:34:18.670Z,25.67
2019-05-09T11:35:19.857Z,25.67
2019-05-09T11:36:21.394Z,25.69
2019-05-09T11:37:22.998Z,25.68
2019-05-09T11:39:38.276Z,25.67
2019-05-09T11:40:31.144Z,25.69
2019-05-09T11:41:02.022Z,25.68
2019-05-09T11:41:32.528Z,25.70
2019-05-09T11:42:33.925Z,25.69
2019-05-09T11:43:35.346Z,25.70
2019-05-09T11:44:38.490Z,25.67
2019-05-09T11:45:40.073Z,25.70
2019-05-09T11:46:41.486Z,25.73
2019-05-09T11:47:46.425Z,25.74
2019-05-09T11:48:46.430Z,25.74
2019-05-09T11:49:48.220Z,25.74
2019-05-09T11:50:49.612Z,25.75
2019-05-09T11:51:51.027Z,25.75
2019-05-09T11:52:52.441Z,25.73
2019-05-09T11:53:53.851Z,25.75
2019-05-09T11:54:55.228Z,25.74
2019-05-09T11:55:57.772Z,25.75
2019-05-09T11:57:00.310Z,25.76
2019-05-09T11:58:01.836Z,25.73
2019-05-09T11:59:03.253Z,25.71
2019-05-09T12:00:08.046Z,25.73
2019-05-09T12:01:09.107Z,25.72
2019-05-09T12:02:10.524Z,25.69
2019-05-09T12:03:13.032Z,25.72
2019-05-09T12:04:14.558Z,25.75
2019-05-09T12:05:19.107Z,25.73
2019-05-09T12:06:20.394Z,25.73
2019-05-09T12:07:21.921Z,25.68
2019-05-09T12:08:23.343Z,25.68
2019-05-09T12:09:24.759Z,25.73
2019-05-09T12:10:28.358Z,25.73
2019-05-09T12:11:29.473Z,25.74
2019-05-09T12:12:30.878Z,25.76
2019-05-09T12:13:32.295Z,25.73
2019-05-09T12:14:33.832Z,25.71
2019-05-09T12:15:35.219Z,25.72
2019-05-09T12:16:38.112Z,25.72
2019-05-09T12:17:56.657Z,25.71
2019-05-09T12:18:43.102Z,25.68
2019-05-09T12:19:44.492Z,25.71
2019-05-09T12:20:48.263Z,25.69
2019-05-09T12:21:49.315Z,25.68
2019-05-09T12:22:50.831Z,25.67
2019-05-09T12:23:52.217Z,25.69
2019-05-09T12:24:54.217Z,25.67
2019-05-09T12:25:58.059Z,25.72
2019-05-09T12:27:02.843Z,25.70
2019-05-09T12:28:02.284Z,25.69
2019-05-09T12:29:03.684Z,25.67
2019-05-09T12:30:06.389Z,25.70
2019-05-09T12:31:08.010Z,25.69
2019-05-09T12:32:09.612Z,25.69
2019-05-09T12:33:11.129Z,25.66
2019-05-09T12:34:12.632Z,25.65
2019-05-09T12:35:14.061Z,25.63
2019-05-09T12:36:19.039Z,25.64
2019-05-09T12:37:19.842Z,25.66
2019-05-09T12:38:23.821Z,25.62
2019-05-09T12:39:27.530Z,25.60
2019-05-09T12:40:29.127Z,25.58
2019-05-09T12:41:31.564Z,25.57
2019-05-09T12:42:33.553Z,25.58
2019-05-09T12:43:34.956Z,25.59
2019-05-09T12:44:36.361Z,25.58
2019-05-09T12:45:38.753Z,25.57
2019-05-09T12:46:40.585Z,25.59
2019-05-09T12:47:42.088Z,25.62
2019-05-09T12:48:43.454Z,25.62
2019-05-09T12:49:44.963Z,25.61
2019-05-09T12:50:48.817Z,25.61
2019-05-09T12:51:50.424Z,25.62
2019-05-09T12:52:52.828Z,25.68
2019-05-09T12:53:54.209Z,25.72
2019-05-09T12:54:58.135Z,25.71
2019-05-09T12:55:59.148Z,25.73
2019-05-09T12:57:01.518Z,25.77
2019-05-09T12:58:03.576Z,25.77
2019-05-09T12:59:05.215Z,25.78
2019-05-09T13:00:08.305Z,25.81
2019-05-09T13:01:09.722Z,25.85
2019-05-09T13:02:11.096Z,25.87
2019-05-09T13:03:12.497Z,25.89
2019-05-09T13:04:13.868Z,25.92
2019-05-09T13:05:15.268Z,25.90
2019-05-09T13:06:19.955Z,25.93
2019-05-09T13:07:20.038Z,25.95
2019-05-09T13:08:22.515Z,25.95
2019-05-09T13:09:23.927Z,25.93
2019-05-09T13:10:25.297Z,25.94
2019-05-09T13:11:27.916Z,25.95
2019-05-09T13:12:29.601Z,25.95
2019-05-09T13:13:32.310Z,25.91
2019-05-09T13:14:33.869Z,25.90
2019-05-09T13:15:42.919Z,25.91
2019-05-09T13:17:02.395Z,25.95
2019-05-09T13:18:03.778Z,25.88
2019-05-09T13:19:06.567Z,25.88
2019-05-09T13:20:09.054Z,25.95
2019-05-09T13:21:10.503Z,25.94
2019-05-09T13:22:11.922Z,25.96
2019-05-09T13:23:13.334Z,25.99
2019-05-09T13:24:19.217Z,26.01
2019-05-09T13:25:19.088Z,26.01
2019-05-09T13:26:20.595Z,26.00
2019-05-09T13:27:23.021Z,26.03
2019-05-09T13:28:24.403Z,26.01
2019-05-09T13:29:25.800Z,26.02
2019-05-09T13:30:28.545Z,26.05
2019-05-09T13:31:30.093Z,26.00